Time,TemperatureF,DewpointF,PressureIn,WindDirection,WindDirectionDegrees,WindSpeedMPH,WindSpeedGustMPH,Humidity,HourlyPrecipIn,Conditions,Clouds,dailyrainin,SoftwareType,DateUTC
2013-06-24 00:02:00,63.1,45.3,30.62,SSE,158,6.0,6.0,52,0.00,,,0.00,meteohub,2013-06-24 06:02:00,
2013-06-24 00:07:00,63.3,45.0,30.62,SSE,158,5.0,6.0,51,0.00,,,0.00,meteohub,2013-06-24 06:07:00,
2013-06-24 00:12:00,63.3,45.0,30.62,SSE,158,8.0,8.0,51,0.00,,,0.00,meteohub,2013-06-24 06:12:00,
2013-06-24 00:17:00,63.9,45.0,30.59,SSE,158,6.0,13.0,50,0.00,,,0.00,meteohub,2013-06-24 06:17:00,
2013-06-24 00:22:00,64.2,45.1,30.59,SSW,202,6.0,13.0,50,0.00,,,0.00,meteohub,2013-06-24 06:22:00,
2013-06-24 00:35:00,64.6,44.4,30.59,SSE,158,7.0,7.0,48,0.00,,,0.00,meteohub,2013-06-24 06:35:00,
2013-06-24 00:53:00,63.7,43.7,30.59,North,-999,-999.0,5.0,48,0.00,,,0.00,meteohub,2013-06-24 06:53:00,
2013-06-24 01:16:00,63.3,43.3,30.59,SSE,158,5.0,5.0,48,0.00,,,0.00,meteohub,2013-06-24 07:16:00,
2013-06-24 01:24:00,64.0,43.3,30.59,SSE,158,1.0,5.0,47,0.00,,,0.00,meteohub,2013-06-24 07:24:00,
2013-06-24 01:29:00,64.2,43.5,30.59,SSE,158,11.0,11.0,47,0.00,,,0.00,meteohub,2013-06-24 07:29:00,
2013-06-24 01:34:00,64.9,43.7,30.59,SSW,202,3.0,11.0,46,0.00,,,0.00,meteohub,2013-06-24 07:34:00,
2013-06-24 01:39:00,65.1,43.3,30.59,SSW,202,3.0,11.0,45,0.00,,,0.00,meteohub,2013-06-24 07:39:00,
2013-06-24 01:45:00,65.1,43.3,30.59,South,180,2.0,11.0,45,0.00,,,0.00,meteohub,2013-06-24 07:45:00,
2013-06-24 01:50:00,64.0,42.8,30.59,NNE,22,0.0,8.0,46,0.00,,,0.00,meteohub,2013-06-24 07:50:00,
2013-06-24 01:55:00,63.1,42.1,30.59,WNW,292,1.0,6.0,46,0.00,,,0.00,meteohub,2013-06-24 07:55:00,
2013-06-24 02:01:00,62.8,41.7,30.59,NNW,338,0.0,1.0,46,0.00,,,0.00,meteohub,2013-06-24 08:01:00,
2013-06-24 02:06:00,62.2,41.7,30.59,East,90,2.0,2.0,47,0.00,,,0.00,meteohub,2013-06-24 08:06:00,
2013-06-24 02:12:00,61.9,41.5,30.59,South,180,0.0,3.0,47,0.00,,,0.00,meteohub,2013-06-24 08:12:00,
2013-06-24 02:17:00,61.7,41.4,30.59,SSE,158,0.0,3.0,47,0.00,,,0.00,meteohub,2013-06-24 08:17:00,
2013-06-24 02:22:00,61.7,41.4,30.59,East,90,0.0,3.0,47,0.00,,,0.00,meteohub,2013-06-24 08:22:00,
2013-06-24 02:27:00,61.5,41.7,30.59,South,180,3.0,3.0,48,0.00,,,0.00,meteohub,2013-06-24 08:27:00,
2013-06-24 02:32:00,62.4,42.4,30.59,SE,135,3.0,4.0,48,0.00,,,0.00,meteohub,2013-06-24 08:32:00,
2013-06-24 02:37:00,62.1,42.1,30.59,SSE,158,4.0,6.0,48,0.00,,,0.00,meteohub,2013-06-24 08:37:00,
2013-06-24 02:42:00,62.4,42.4,30.59,SSE,158,4.0,6.0,48,0.00,,,0.00,meteohub,2013-06-24 08:42:00,
2013-06-24 02:47:00,61.9,42.1,30.59,SSE,158,3.0,6.0,48,0.00,,,0.00,meteohub,2013-06-24 08:47:00,
2013-06-24 02:52:00,61.5,41.7,30.59,SSE,158,5.0,6.0,48,0.00,,,0.00,meteohub,2013-06-24 08:52:00,
2013-06-24 02:57:00,61.5,42.3,30.59,SSW,202,4.0,6.0,49,0.00,,,0.00,meteohub,2013-06-24 08:57:00,
2013-06-24 03:02:00,61.0,41.7,30.59,SE,135,3.0,6.0,49,0.00,,,0.00,meteohub,2013-06-24 09:02:00,
2013-06-24 03:07:00,60.6,41.9,30.59,SSE,158,5.0,6.0,50,0.00,,,0.00,meteohub,2013-06-24 09:07:00,
2013-06-24 03:12:00,60.6,41.9,30.59,SSE,158,6.0,6.0,50,0.00,,,0.00,meteohub,2013-06-24 09:12:00,
2013-06-24 03:18:00,60.4,42.3,30.59,SSE,158,4.0,6.0,51,0.00,,,0.00,meteohub,2013-06-24 09:18:00,
2013-06-24 03:23:00,59.7,42.1,30.59,SSW,202,3.0,6.0,52,0.00,,,0.00,meteohub,2013-06-24 09:23:00,
2013-06-24 03:29:00,59.2,42.1,30.59,SSE,158,4.0,6.0,53,0.00,,,0.00,meteohub,2013-06-24 09:29:00,
2013-06-24 03:34:00,59.0,41.9,30.59,SSE,158,4.0,6.0,53,0.00,,,0.00,meteohub,2013-06-24 09:34:00,
2013-06-24 03:39:00,59.0,42.4,30.59,SE,135,6.0,6.0,54,0.00,,,0.00,meteohub,2013-06-24 09:39:00,
2013-06-24 03:45:00,58.5,42.8,30.59,South,180,6.0,6.0,56,0.00,,,0.00,meteohub,2013-06-24 09:45:00,
2013-06-24 03:50:00,57.9,42.8,30.59,SSE,158,4.0,6.0,57,0.00,,,0.00,meteohub,2013-06-24 09:50:00,
2013-06-24 03:55:00,57.7,43.5,30.59,SSE,158,4.0,6.0,59,0.00,,,0.00,meteohub,2013-06-24 09:55:00,
2013-06-24 04:01:00,57.9,43.7,30.59,SSE,158,4.0,6.0,59,0.00,,,0.00,meteohub,2013-06-24 10:01:00,
2013-06-24 04:06:00,57.7,43.5,30.59,SE,135,3.0,6.0,59,0.00,,,0.00,meteohub,2013-06-24 10:06:00,
2013-06-24 04:11:00,57.4,42.3,30.59,SSW,202,2.0,6.0,57,0.00,,,0.00,meteohub,2013-06-24 10:11:00,
2013-06-24 04:16:00,57.2,42.1,30.59,SSW,202,2.0,5.0,57,0.00,,,0.00,meteohub,2013-06-24 10:16:00,
2013-06-24 04:22:00,58.3,42.6,30.59,SSW,202,4.0,4.0,56,0.00,,,0.00,meteohub,2013-06-24 10:22:00,
2013-06-24 04:27:00,59.4,43.2,30.59,WSW,248,3.0,6.0,55,0.00,,,0.00,meteohub,2013-06-24 10:27:00,
2013-06-24 04:32:00,59.7,43.0,30.59,NNW,338,2.0,6.0,54,0.00,,,0.00,meteohub,2013-06-24 10:32:00,
2013-06-24 04:37:00,60.1,43.3,30.59,ESE,112,3.0,6.0,54,0.00,,,0.00,meteohub,2013-06-24 10:37:00,
2013-06-24 04:43:00,60.4,43.3,30.59,ESE,112,0.0,6.0,53,0.00,,,0.00,meteohub,2013-06-24 10:43:00,
2013-06-24 04:49:00,60.4,42.8,30.59,SSE,158,3.0,6.0,52,0.00,,,0.00,meteohub,2013-06-24 10:49:00,
2013-06-24 04:55:00,60.6,43.0,30.59,SSW,202,2.0,6.0,52,0.00,,,0.00,meteohub,2013-06-24 10:55:00,
2013-06-24 05:00:00,60.6,43.0,30.59,SSE,158,3.0,6.0,52,0.00,,,0.00,meteohub,2013-06-24 11:00:00,
2013-06-24 05:05:00,60.6,43.0,30.59,SSE,158,4.0,6.0,52,0.00,,,0.00,meteohub,2013-06-24 11:05:00,
2013-06-24 05:10:00,60.8,43.2,30.59,SE,135,3.0,6.0,52,0.00,,,0.00,meteohub,2013-06-24 11:10:00,
2013-06-24 05:16:00,60.8,43.2,30.59,South,180,6.0,6.0,52,0.00,,,0.00,meteohub,2013-06-24 11:16:00,
2013-06-24 05:21:00,61.0,43.3,30.59,SSW,202,3.0,6.0,52,0.00,,,0.00,meteohub,2013-06-24 11:21:00,
2013-06-24 05:27:00,61.2,43.3,30.59,SSW,202,3.0,6.0,52,0.00,,,0.00,meteohub,2013-06-24 11:27:00,
2013-06-24 05:32:00,61.0,42.8,30.59,South,180,5.0,6.0,51,0.00,,,0.00,meteohub,2013-06-24 11:32:00,
2013-06-24 05:37:00,60.6,42.4,30.59,SSW,202,4.0,6.0,51,0.00,,,0.00,meteohub,2013-06-24 11:37:00,
2013-06-24 05:42:00,60.6,42.4,30.59,South,180,3.0,6.0,51,0.00,,,0.00,meteohub,2013-06-24 11:42:00,
2013-06-24 05:47:00,60.1,42.4,30.59,SSE,158,4.0,5.0,52,0.00,,,0.00,meteohub,2013-06-24 11:47:00,
2013-06-24 05:52:00,60.1,42.4,30.59,South,180,4.0,4.0,52,0.00,,,0.00,meteohub,2013-06-24 11:52:00,
2013-06-24 05:57:00,60.3,42.6,30.59,SSW,202,3.0,4.0,52,0.00,,,0.00,meteohub,2013-06-24 11:57:00,
2013-06-24 06:02:00,60.3,42.6,30.59,South,180,3.0,4.0,52,0.00,,,0.00,meteohub,2013-06-24 12:02:00,
2013-06-24 06:07:00,60.4,42.3,30.59,SSE,158,3.0,4.0,51,0.00,,,0.00,meteohub,2013-06-24 12:07:00,
2013-06-24 06:12:00,60.4,42.3,30.59,SSW,202,1.0,4.0,51,0.00,,,0.00,meteohub,2013-06-24 12:12:00,
2013-06-24 06:18:00,60.4,42.3,30.59,ESE,112,1.0,4.0,51,0.00,,,0.00,meteohub,2013-06-24 12:18:00,
2013-06-24 06:23:00,60.1,42.4,30.59,ESE,112,3.0,4.0,52,0.00,,,0.00,meteohub,2013-06-24 12:23:00,
2013-06-24 06:28:00,60.1,42.4,30.59,ESE,112,3.0,3.0,52,0.00,,,0.00,meteohub,2013-06-24 12:28:00,
2013-06-24 06:34:00,59.9,42.8,30.59,ESE,112,3.0,3.0,53,0.00,,,0.00,meteohub,2013-06-24 12:34:00,
2013-06-24 06:39:00,60.1,43.0,30.59,SE,135,3.0,3.0,53,0.00,,,0.00,meteohub,2013-06-24 12:39:00,
2013-06-24 06:45:00,60.6,43.0,30.59,WNW,292,1.0,4.0,52,0.00,,,0.00,meteohub,2013-06-24 12:45:00,
2013-06-24 06:51:00,61.0,43.3,30.59,ESE,112,2.0,6.0,52,0.00,,,0.00,meteohub,2013-06-24 12:51:00,
2013-06-24 06:56:00,60.4,43.3,30.59,ESE,112,2.0,6.0,53,0.00,,,0.00,meteohub,2013-06-24 12:56:00,
2013-06-24 07:01:00,60.8,43.5,30.59,ESE,112,2.0,2.0,53,0.00,,,0.00,meteohub,2013-06-24 13:01:00,
2013-06-24 07:06:00,61.0,43.7,30.59,ESE,112,1.0,3.0,53,0.00,,,0.00,meteohub,2013-06-24 13:06:00,
2013-06-24 07:12:00,61.0,44.2,30.59,ESE,112,2.0,3.0,54,0.00,,,0.00,meteohub,2013-06-24 13:12:00,
2013-06-24 07:17:00,61.0,44.2,30.59,East,90,1.0,3.0,54,0.00,,,0.00,meteohub,2013-06-24 13:17:00,
2013-06-24 07:22:00,62.6,45.3,30.59,ESE,112,2.0,3.0,53,0.00,,,0.00,meteohub,2013-06-24 13:22:00,
2013-06-24 07:27:00,63.5,46.0,30.59,East,90,1.0,3.0,53,0.00,,,0.00,meteohub,2013-06-24 13:27:00,
2013-06-24 07:32:00,65.5,47.5,30.56,East,90,1.0,2.0,52,0.00,,,0.00,meteohub,2013-06-24 13:32:00,
2013-06-24 07:37:00,68.0,49.3,30.56,East,90,1.0,2.0,51,0.00,,,0.00,meteohub,2013-06-24 13:37:00,
2013-06-24 07:42:00,69.4,48.4,30.56,SSE,158,2.0,4.0,47,0.00,,,0.00,meteohub,2013-06-24 13:42:00,
2013-06-24 07:48:00,70.0,47.7,30.56,SSE,158,7.0,7.0,45,0.00,,,0.00,meteohub,2013-06-24 13:48:00,
2013-06-24 07:54:00,70.7,47.7,30.56,SSE,158,4.0,7.0,44,0.00,,,0.00,meteohub,2013-06-24 13:54:00,
2013-06-24 08:00:00,71.2,48.2,30.56,ESE,112,6.0,7.0,44,0.00,,,0.00,meteohub,2013-06-24 14:00:00,
2013-06-24 08:05:00,71.6,48.0,30.56,SSW,202,4.0,7.0,43,0.00,,,0.00,meteohub,2013-06-24 14:05:00,
2013-06-24 08:10:00,72.1,48.4,30.56,SSE,158,5.0,8.0,43,0.00,,,0.00,meteohub,2013-06-24 14:10:00,
2013-06-24 08:15:00,72.3,48.6,30.59,SSE,158,5.0,8.0,43,0.00,,,0.00,meteohub,2013-06-24 14:15:00,
2013-06-24 08:20:00,72.1,48.4,30.59,SSE,158,5.0,8.0,43,0.00,,,0.00,meteohub,2013-06-24 14:20:00,
2013-06-24 08:25:00,72.7,48.9,30.59,SSW,202,5.0,8.0,43,0.00,,,0.00,meteohub,2013-06-24 14:25:00,
2013-06-24 08:31:00,73.2,49.5,30.59,SSE,158,3.0,7.0,43,0.00,,,0.00,meteohub,2013-06-24 14:31:00,
2013-06-24 08:36:00,73.8,49.3,30.59,SSW,202,2.0,7.0,42,0.00,,,0.00,meteohub,2013-06-24 14:36:00,
2013-06-24 08:41:00,74.7,49.5,30.59,SSE,158,8.0,8.0,41,0.00,,,0.00,meteohub,2013-06-24 14:41:00,
2013-06-24 08:46:00,74.8,49.6,30.56,SSE,158,6.0,10.0,41,0.00,,,0.00,meteohub,2013-06-24 14:46:00,
2013-06-24 08:52:00,75.4,49.5,30.56,SSW,202,4.0,10.0,40,0.00,,,0.00,meteohub,2013-06-24 14:52:00,
2013-06-24 08:57:00,72.7,46.9,30.56,SSE,158,6.0,10.0,40,0.00,,,0.00,meteohub,2013-06-24 14:57:00,
2013-06-24 09:02:00,72.9,47.1,30.59,SSE,158,6.0,10.0,40,0.00,,,0.00,meteohub,2013-06-24 15:02:00,
2013-06-24 09:07:00,74.8,49.6,30.59,South,180,6.0,10.0,41,0.00,,,0.00,meteohub,2013-06-24 15:07:00,
2013-06-24 09:12:00,75.2,49.3,30.59,SSW,202,6.0,10.0,40,0.00,,,0.00,meteohub,2013-06-24 15:12:00,
2013-06-24 09:18:00,75.9,49.8,30.56,SE,135,6.0,9.0,40,0.00,,,0.00,meteohub,2013-06-24 15:18:00,
2013-06-24 09:24:00,76.5,49.6,30.56,SSW,202,5.0,9.0,39,0.00,,,0.00,meteohub,2013-06-24 15:24:00,
2013-06-24 09:29:00,77.5,49.3,30.56,SSE,158,6.0,9.0,37,0.00,,,0.00,meteohub,2013-06-24 15:29:00,
2013-06-24 09:34:00,78.8,49.6,30.56,SE,135,5.0,9.0,36,0.00,,,0.00,meteohub,2013-06-24 15:34:00,
2013-06-24 09:39:00,78.4,48.6,30.56,SSE,158,3.0,7.0,35,0.00,,,0.00,meteohub,2013-06-24 15:39:00,
2013-06-24 09:44:00,77.9,48.7,30.56,SE,135,3.0,7.0,36,0.00,,,0.00,meteohub,2013-06-24 15:44:00,
2013-06-24 09:49:00,80.1,50.7,30.53,SSE,158,2.0,6.0,36,0.00,,,0.00,meteohub,2013-06-24 15:49:00,
2013-06-24 09:54:00,81.1,50.2,30.53,SSE,158,4.0,6.0,34,0.00,,,0.00,meteohub,2013-06-24 15:54:00,
2013-06-24 10:00:00,80.2,49.3,30.53,ESE,112,2.0,7.0,34,0.00,,,0.00,meteohub,2013-06-24 16:00:00,
2013-06-24 10:05:00,79.7,48.9,30.53,SSE,158,4.0,6.0,34,0.00,,,0.00,meteohub,2013-06-24 16:05:00,
2013-06-24 10:10:00,80.2,49.3,30.53,ESE,112,3.0,6.0,34,0.00,,,0.00,meteohub,2013-06-24 16:10:00,
2013-06-24 10:16:00,81.1,49.3,30.53,SSW,202,4.0,6.0,33,0.00,,,0.00,meteohub,2013-06-24 16:16:00,
2013-06-24 10:21:00,81.0,49.1,30.53,ESE,112,3.0,6.0,33,0.00,,,0.00,meteohub,2013-06-24 16:21:00,
2013-06-24 10:26:00,81.0,49.1,30.53,SSE,158,3.0,9.0,33,0.00,,,0.00,meteohub,2013-06-24 16:26:00,
2013-06-24 10:32:00,80.8,49.1,30.53,SE,135,2.0,9.0,33,0.00,,,0.00,meteohub,2013-06-24 16:32:00,
2013-06-24 10:37:00,81.7,49.8,30.53,ESE,112,2.0,9.0,33,0.00,,,0.00,meteohub,2013-06-24 16:37:00,
2013-06-24 10:42:00,82.4,50.4,30.53,ESE,112,2.0,6.0,33,0.00,,,0.00,meteohub,2013-06-24 16:42:00,
2013-06-24 10:47:00,82.0,50.2,30.50,SSW,202,3.0,4.0,33,0.00,,,0.00,meteohub,2013-06-24 16:47:00,
2013-06-24 10:52:00,82.2,50.2,30.50,ENE,68,2.0,5.0,33,0.00,,,0.00,meteohub,2013-06-24 16:52:00,
2013-06-24 10:57:00,82.2,50.2,30.50,SE,135,4.0,6.0,33,0.00,,,0.00,meteohub,2013-06-24 16:57:00,
2013-06-24 11:02:00,82.4,49.6,30.53,ESE,112,3.0,6.0,32,0.00,,,0.00,meteohub,2013-06-24 17:02:00,
2013-06-24 11:07:00,82.0,49.3,30.53,SSE,158,5.0,6.0,32,0.00,,,0.00,meteohub,2013-06-24 17:07:00,
2013-06-24 11:12:00,82.9,50.0,30.53,SSE,158,4.0,6.0,32,0.00,,,0.00,meteohub,2013-06-24 17:12:00,
2013-06-24 11:17:00,85.1,51.1,30.50,SSE,158,4.0,5.0,31,0.00,,,0.00,meteohub,2013-06-24 17:17:00,
2013-06-24 11:44:00,95.2,43.5,30.50,ENE,68,2.0,-999.0,17,0.00,,,0.00,meteohub,2013-06-24 17:44:00,
2013-06-24 12:21:00,94.1,42.6,30.53,ESE,112,1.0,4.0,17,0.00,,,0.00,meteohub,2013-06-24 18:21:00,
2013-06-24 12:27:00,95.0,43.3,30.53,NNW,338,3.0,3.0,17,0.00,,,0.00,meteohub,2013-06-24 18:27:00,
2013-06-24 12:33:00,93.0,-7.4,30.53,NW,315,4.0,5.0,2,0.00,,,0.00,meteohub,2013-06-24 18:33:00,
2013-06-24 12:39:00,94.8,-6.2,30.53,WNW,292,2.0,9.0,2,0.00,,,0.00,meteohub,2013-06-24 18:39:00,
2013-06-24 12:44:00,94.1,-6.7,30.53,SSW,202,4.0,9.0,2,0.00,,,0.00,meteohub,2013-06-24 18:44:00,
2013-06-24 12:49:00,92.3,-7.8,30.53,NNW,338,4.0,9.0,2,0.00,,,0.00,meteohub,2013-06-24 18:49:00,
2013-06-24 12:54:00,93.9,-6.9,30.53,SSE,158,5.0,7.0,2,0.00,,,0.00,meteohub,2013-06-24 18:54:00,
2013-06-24 12:59:00,94.3,-6.5,30.50,NNW,338,3.0,9.0,2,0.00,,,0.00,meteohub,2013-06-24 18:59:00,
2013-06-24 13:06:00,96.4,-5.3,30.50,NNW,338,5.0,9.0,2,0.00,,,0.00,meteohub,2013-06-24 19:06:00,
2013-06-24 13:12:00,95.9,-5.6,30.50,NW,315,6.0,8.0,2,0.00,,,0.00,meteohub,2013-06-24 19:12:00,
2013-06-24 13:17:00,96.4,-5.3,30.50,SSE,158,3.0,13.0,2,0.00,,,0.00,meteohub,2013-06-24 19:17:00,
2013-06-24 13:22:00,95.9,-5.6,30.50,NW,315,3.0,13.0,2,0.00,,,0.00,meteohub,2013-06-24 19:22:00,
2013-06-24 13:27:00,97.3,-4.7,30.50,ENE,68,1.0,13.0,2,0.00,,,0.00,meteohub,2013-06-24 19:27:00,
2013-06-24 13:33:00,98.4,-4.0,30.50,WSW,248,3.0,9.0,2,0.00,,,0.00,meteohub,2013-06-24 19:33:00,
2013-06-24 13:38:00,100.4,-2.7,30.50,SSE,158,5.0,9.0,2,0.00,,,0.00,meteohub,2013-06-24 19:38:00,
2013-06-24 13:44:00,100.4,-2.7,30.50,SSE,158,8.0,9.0,2,0.00,,,0.00,meteohub,2013-06-24 19:44:00,
2013-06-24 13:49:00,96.1,-5.4,30.50,East,90,4.0,10.0,2,0.00,,,0.00,meteohub,2013-06-24 19:49:00,
2013-06-24 13:54:00,93.7,-6.9,30.50,SSW,202,6.0,11.0,2,0.00,,,0.00,meteohub,2013-06-24 19:54:00,
2013-06-24 14:00:00,93.0,-7.4,30.50,SSE,158,7.0,11.0,2,0.00,,,0.00,meteohub,2013-06-24 20:00:00,
2013-06-24 14:05:00,96.4,-5.3,30.50,SSE,158,3.0,11.0,2,0.00,,,0.00,meteohub,2013-06-24 20:05:00,
2013-06-24 14:11:00,98.2,-4.0,30.50,NNW,338,3.0,11.0,2,0.00,,,0.00,meteohub,2013-06-24 20:11:00,
2013-06-24 14:16:00,93.0,-7.4,30.47,ESE,112,4.0,12.0,2,0.00,,,0.00,meteohub,2013-06-24 20:16:00,
2013-06-24 14:21:00,93.6,-7.1,30.47,SSE,158,4.0,12.0,2,0.00,,,0.00,meteohub,2013-06-24 20:21:00,
2013-06-24 14:26:00,91.9,-8.1,30.47,SSE,158,8.0,12.0,2,0.00,,,0.00,meteohub,2013-06-24 20:26:00,
2013-06-24 14:32:00,92.5,-7.8,30.47,SSE,158,5.0,13.0,2,0.00,,,0.00,meteohub,2013-06-24 20:32:00,
2013-06-24 14:37:00,90.0,-9.2,30.47,SSE,158,8.0,13.0,2,0.00,,,0.00,meteohub,2013-06-24 20:37:00,
2013-06-24 14:42:00,88.0,-10.5,30.47,SSE,158,10.0,13.0,2,0.00,,,0.00,meteohub,2013-06-24 20:42:00,
2013-06-24 14:47:00,86.9,-11.2,30.47,SSW,202,6.0,13.0,2,0.00,,,0.00,meteohub,2013-06-24 20:47:00,
2013-06-24 14:52:00,86.7,-11.4,30.47,SSE,158,6.0,13.0,2,0.00,,,0.00,meteohub,2013-06-24 20:52:00,
2013-06-24 14:57:00,87.6,-10.8,30.47,SSE,158,12.0,13.0,2,0.00,,,0.00,meteohub,2013-06-24 20:57:00,
2013-06-24 15:02:00,86.9,-11.2,30.50,SSW,202,8.0,13.0,2,0.00,,,0.00,meteohub,2013-06-24 21:02:00,
2013-06-24 15:07:00,86.4,-11.6,30.50,SSE,158,8.0,12.0,2,0.00,,,0.00,meteohub,2013-06-24 21:07:00,
2013-06-24 15:13:00,86.2,-11.7,30.50,SSE,158,8.0,12.0,2,0.00,,,0.00,meteohub,2013-06-24 21:13:00,
2013-06-24 15:18:00,86.4,-11.6,30.50,SSW,202,5.0,13.0,2,0.00,,,0.00,meteohub,2013-06-24 21:18:00,
2013-06-24 15:24:00,85.8,-11.9,30.50,South,180,4.0,13.0,2,0.00,,,0.00,meteohub,2013-06-24 21:24:00,
2013-06-24 15:29:00,84.7,-12.6,30.50,SSE,158,6.0,11.0,2,0.00,,,0.00,meteohub,2013-06-24 21:29:00,
2013-06-24 15:35:00,84.2,-13.0,30.50,SSE,158,10.0,11.0,2,0.00,,,0.00,meteohub,2013-06-24 21:35:00,
2013-06-24 15:40:00,83.8,-13.2,30.50,SSE,158,5.0,10.0,2,0.00,,,0.00,meteohub,2013-06-24 21:40:00,
2013-06-24 15:46:00,84.0,-13.0,30.50,SSE,158,11.0,11.0,2,0.00,,,0.00,meteohub,2013-06-24 21:46:00,
2013-06-24 15:51:00,84.9,-12.5,30.50,SSW,202,6.0,11.0,2,0.00,,,0.00,meteohub,2013-06-24 21:51:00,
2013-06-24 15:56:00,86.2,-11.7,30.50,SSE,158,4.0,11.0,2,0.00,,,0.00,meteohub,2013-06-24 21:56:00,
2013-06-24 16:01:00,88.3,-10.3,30.50,East,90,6.0,9.0,2,0.00,,,0.00,meteohub,2013-06-24 22:01:00,
2013-06-24 16:07:00,90.0,-9.2,30.50,SSE,158,6.0,7.0,2,0.00,,,0.00,meteohub,2013-06-24 22:07:00,
2013-06-24 16:12:00,91.0,-8.7,30.50,SSE,158,9.0,9.0,2,0.00,,,0.00,meteohub,2013-06-24 22:12:00,
2013-06-24 16:17:00,91.8,-8.1,30.50,SSE,158,5.0,10.0,2,0.00,,,0.00,meteohub,2013-06-24 22:17:00,
2013-06-24 16:23:00,89.4,-9.6,30.50,SE,135,10.0,10.0,2,0.00,,,0.00,meteohub,2013-06-24 22:23:00,
2013-06-24 16:28:00,90.1,-9.2,30.50,SSW,202,2.0,10.0,2,0.00,,,0.00,meteohub,2013-06-24 22:28:00,
2013-06-24 16:34:00,90.5,-9.0,30.47,NNW,338,3.0,10.0,2,0.00,,,0.00,meteohub,2013-06-24 22:34:00,
2013-06-24 16:39:00,91.9,-8.1,30.47,SSE,158,5.0,10.0,2,0.00,,,0.00,meteohub,2013-06-24 22:39:00,
2013-06-24 16:44:00,91.6,-8.3,30.50,ESE,112,4.0,6.0,2,0.00,,,0.00,meteohub,2013-06-24 22:44:00,
2013-06-24 16:50:00,91.2,-8.5,30.50,SSE,158,10.0,10.0,2,0.00,,,0.00,meteohub,2013-06-24 22:50:00,
2013-06-24 16:55:00,89.1,-9.9,30.50,SSE,158,7.0,10.0,2,0.00,,,0.00,meteohub,2013-06-24 22:55:00,
2013-06-24 17:00:00,88.9,-9.9,30.47,SSE,158,4.0,10.0,2,0.00,,,0.00,meteohub,2013-06-24 23:00:00,
2013-06-24 17:06:00,90.3,-9.0,30.47,SSE,158,3.0,10.0,2,0.00,,,0.00,meteohub,2013-06-24 23:06:00,
2013-06-24 17:11:00,90.5,-9.0,30.47,South,180,3.0,9.0,2,0.00,,,0.00,meteohub,2013-06-24 23:11:00,
2013-06-24 17:16:00,90.5,-9.0,30.50,SE,135,6.0,7.0,2,0.00,,,0.00,meteohub,2013-06-24 23:16:00,
2013-06-24 17:21:00,90.9,-8.7,30.50,SSE,158,1.0,7.0,2,0.00,,,0.00,meteohub,2013-06-24 23:21:00,
2013-06-24 17:26:00,90.0,-9.2,30.50,South,180,3.0,7.0,2,0.00,,,0.00,meteohub,2013-06-24 23:26:00,
2013-06-24 17:32:00,87.8,-10.7,30.47,SSE,158,3.0,6.0,2,0.00,,,0.00,meteohub,2013-06-24 23:32:00,
2013-06-24 17:37:00,87.1,-11.2,30.47,SSE,158,4.0,6.0,2,0.00,,,0.00,meteohub,2013-06-24 23:37:00,
2013-06-24 17:42:00,86.0,-11.7,30.47,SSE,158,6.0,6.0,2,0.00,,,0.00,meteohub,2013-06-24 23:42:00,
2013-06-24 17:47:00,86.0,-11.7,30.47,SSE,158,3.0,7.0,2,0.00,,,0.00,meteohub,2013-06-24 23:47:00,
2013-06-24 17:52:00,85.5,-12.1,30.47,SSE,158,3.0,7.0,2,0.00,,,0.00,meteohub,2013-06-24 23:52:00,
2013-06-24 17:57:00,84.7,-12.6,30.47,SSW,202,1.0,7.0,2,0.00,,,0.00,meteohub,2013-06-24 23:57:00,
2013-06-24 18:03:00,84.2,-13.0,30.47,SSE,158,4.0,5.0,2,0.00,,,0.00,meteohub,2013-06-25 00:03:00,
2013-06-24 18:09:00,83.8,-13.2,30.47,SSW,202,4.0,5.0,2,0.00,,,0.00,meteohub,2013-06-25 00:09:00,
2013-06-24 18:14:00,83.5,-13.4,30.47,SSE,158,2.0,6.0,2,0.00,,,0.00,meteohub,2013-06-25 00:14:00,
2013-06-24 18:20:00,83.5,-13.4,30.47,SSW,202,2.0,6.0,2,0.00,,,0.00,meteohub,2013-06-25 00:20:00,
2013-06-24 18:24:00,83.3,-13.5,30.47,SSE,158,2.0,6.0,2,0.00,,,0.00,meteohub,2013-06-25 00:24:00,
2013-06-24 18:30:00,84.4,-12.8,30.47,SSE,158,3.0,4.0,2,0.00,,,0.00,meteohub,2013-06-25 00:30:00,
2013-06-24 18:36:00,84.4,-12.8,30.47,SSE,158,4.0,5.0,2,0.00,,,0.00,meteohub,2013-06-25 00:36:00,
2013-06-24 18:41:00,84.2,-13.0,30.47,SSW,202,3.0,5.0,2,0.00,,,0.00,meteohub,2013-06-25 00:41:00,
2013-06-24 18:47:00,84.6,-12.6,30.47,SSE,158,8.0,8.0,2,0.00,,,0.00,meteohub,2013-06-25 00:47:00,
2013-06-24 18:52:00,85.1,-12.5,30.47,SSE,158,4.0,9.0,2,0.00,,,0.00,meteohub,2013-06-25 00:52:00,
2013-06-24 18:57:00,85.5,-12.1,30.47,South,180,6.0,9.0,2,0.00,,,0.00,meteohub,2013-06-25 00:57:00,
2013-06-24 19:02:00,85.1,-12.5,30.47,SSW,202,2.0,9.0,2,0.00,,,0.00,meteohub,2013-06-25 01:02:00,
2013-06-24 19:07:00,83.7,-13.4,30.47,SSE,158,3.0,6.0,2,0.00,,,0.00,meteohub,2013-06-25 01:07:00,
2013-06-24 19:12:00,82.0,-14.3,30.47,SSW,202,3.0,6.0,2,0.00,,,0.00,meteohub,2013-06-25 01:12:00,
2013-06-24 19:17:00,81.7,-14.6,30.50,SSW,202,4.0,6.0,2,0.00,,,0.00,meteohub,2013-06-25 01:17:00,
2013-06-24 19:22:00,81.1,-15.0,30.50,SSE,158,8.0,8.0,2,0.00,,,0.00,meteohub,2013-06-25 01:22:00,
2013-06-24 19:27:00,81.0,-15.0,30.50,SSE,158,5.0,10.0,2,0.00,,,0.00,meteohub,2013-06-25 01:27:00,
2013-06-24 19:32:00,80.2,-15.5,30.47,SSW,202,4.0,12.0,2,0.00,,,0.00,meteohub,2013-06-25 01:32:00,
2013-06-24 19:37:00,79.7,-15.9,30.47,SSW,202,2.0,12.0,2,0.00,,,0.00,meteohub,2013-06-25 01:37:00,
2013-06-24 19:43:00,81.3,-14.8,30.47,SSE,158,4.0,8.0,2,0.00,,,0.00,meteohub,2013-06-25 01:43:00,
2013-06-24 19:48:00,81.5,-14.6,30.47,SSW,202,9.0,9.0,2,0.00,,,0.00,meteohub,2013-06-25 01:48:00,
2013-06-24 19:53:00,80.8,-15.2,30.47,South,180,4.0,11.0,2,0.00,,,0.00,meteohub,2013-06-25 01:53:00,
2013-06-24 19:58:00,79.7,-15.9,30.47,SSE,158,6.0,11.0,2,0.00,,,0.00,meteohub,2013-06-25 01:58:00,
2013-06-24 20:04:00,79.7,-15.9,30.47,SSW,202,1.0,11.0,2,0.00,,,0.00,meteohub,2013-06-25 02:04:00,
2013-06-24 20:09:00,79.0,-16.2,30.47,NNW,338,2.0,11.0,2,0.00,,,0.00,meteohub,2013-06-25 02:09:00,
2013-06-24 20:14:00,77.5,-17.1,30.50,NNW,338,2.0,11.0,2,0.00,,,0.00,meteohub,2013-06-25 02:14:00,
2013-06-24 20:20:00,76.6,-17.9,30.50,NNE,22,2.0,6.0,2,0.00,,,0.00,meteohub,2013-06-25 02:20:00,
2013-06-24 20:26:00,75.9,-18.2,30.50,SSW,202,2.0,4.0,2,0.00,,,0.00,meteohub,2013-06-25 02:26:00,
2013-06-24 20:31:00,74.1,-19.5,30.50,NNW,338,0.0,4.0,2,0.00,,,0.00,meteohub,2013-06-25 02:31:00,
2013-06-24 20:36:00,73.8,-19.7,30.50,ESE,112,1.0,4.0,2,0.00,,,0.00,meteohub,2013-06-25 02:36:00,
2013-06-24 20:42:00,73.0,-12.1,30.50,NNW,338,3.0,3.0,3,0.00,,,0.00,meteohub,2013-06-25 02:42:00,
2013-06-24 20:47:00,73.2,-12.1,30.50,WSW,248,3.0,3.0,3,0.00,,,0.00,meteohub,2013-06-25 02:47:00,
2013-06-24 20:52:00,73.2,-12.1,30.50,NNE,22,3.0,4.0,3,0.00,,,0.00,meteohub,2013-06-25 02:52:00,
2013-06-24 20:57:00,73.0,-12.1,30.50,NNE,22,1.0,4.0,3,0.00,,,0.00,meteohub,2013-06-25 02:57:00,
2013-06-24 21:02:00,73.0,-12.1,30.50,NNW,338,4.0,4.0,3,0.00,,,0.00,meteohub,2013-06-25 03:02:00,
2013-06-24 21:07:00,73.4,-19.8,30.50,NNE,22,0.0,6.0,2,0.00,,,0.00,meteohub,2013-06-25 03:07:00,
2013-06-24 21:13:00,73.0,-12.1,30.50,NNE,22,3.0,6.0,3,0.00,,,0.00,meteohub,2013-06-25 03:13:00,
2013-06-24 21:18:00,72.9,-12.3,30.53,West,270,0.0,6.0,3,0.00,,,0.00,meteohub,2013-06-25 03:18:00,
2013-06-24 21:23:00,73.2,-12.1,30.53,WNW,292,0.0,3.0,3,0.00,,,0.00,meteohub,2013-06-25 03:23:00,
2013-06-24 21:28:00,73.0,-12.1,30.53,NNE,22,2.0,3.0,3,0.00,,,0.00,meteohub,2013-06-25 03:28:00,
2013-06-24 21:34:00,72.7,-12.5,30.53,NNW,338,0.0,3.0,3,0.00,,,0.00,meteohub,2013-06-25 03:34:00,
2013-06-24 21:39:00,72.3,-12.6,30.53,NNW,338,3.0,3.0,3,0.00,,,0.00,meteohub,2013-06-25 03:39:00,
2013-06-24 21:44:00,71.8,-13.0,30.53,NNE,22,2.0,3.0,3,0.00,,,0.00,meteohub,2013-06-25 03:44:00,
2013-06-24 21:51:00,72.5,-12.6,30.53,WNW,292,0.0,5.0,3,0.00,,,0.00,meteohub,2013-06-25 03:51:00,
2013-06-24 21:57:00,71.8,-13.0,30.53,East,90,1.0,5.0,3,0.00,,,0.00,meteohub,2013-06-25 03:57:00,
2013-06-24 22:01:00,71.2,-13.4,30.53,ENE,68,0.0,5.0,3,0.00,,,0.00,meteohub,2013-06-25 04:01:00,
2013-06-24 22:02:00,71.1,-13.5,30.53,NE,45,0.0,5.0,3,0.00,,,0.00,meteohub,2013-06-25 04:02:00,
2013-06-24 22:04:00,70.9,-13.7,30.53,NE,45,0.0,5.0,3,0.00,,,0.00,meteohub,2013-06-25 04:04:00,
2013-06-24 22:09:00,70.3,-14.1,30.53,NNW,338,0.0,2.0,3,0.00,,,0.00,meteohub,2013-06-25 04:09:00,
2013-06-24 22:14:00,70.3,-14.1,30.53,NW,315,2.0,2.0,3,0.00,,,0.00,meteohub,2013-06-25 04:14:00,
2013-06-24 22:19:00,70.5,-13.9,30.53,SSE,158,2.0,4.0,3,0.00,,,0.00,meteohub,2013-06-25 04:19:00,
2013-06-24 22:25:00,71.1,-13.5,30.53,SSW,202,2.0,4.0,3,0.00,,,0.00,meteohub,2013-06-25 04:25:00,
2013-06-24 22:30:00,71.6,-13.2,30.53,WNW,292,2.0,5.0,3,0.00,,,0.00,meteohub,2013-06-25 04:30:00,
2013-06-24 22:35:00,73.0,-12.1,30.53,NNW,338,1.0,5.0,3,0.00,,,0.00,meteohub,2013-06-25 04:35:00,
2013-06-24 22:40:00,72.7,-12.5,30.53,WNW,292,0.0,9.0,3,0.00,,,0.00,meteohub,2013-06-25 04:40:00,
2013-06-24 22:45:00,73.0,-12.1,30.53,SSW,202,4.0,9.0,3,0.00,,,0.00,meteohub,2013-06-25 04:45:00,
2013-06-24 22:50:00,75.2,-18.8,30.53,WSW,248,6.0,9.0,2,0.00,,,0.00,meteohub,2013-06-25 04:50:00,
2013-06-24 22:55:00,75.7,-18.4,30.53,SW,225,9.0,12.0,2,0.00,,,0.00,meteohub,2013-06-25 04:55:00,
2013-06-24 23:00:00,75.9,-18.2,30.53,WNW,292,6.0,11.0,2,0.00,,,0.00,meteohub,2013-06-25 05:00:00,
2013-06-24 23:05:00,75.9,-18.2,30.53,NNW,338,7.0,11.0,2,0.00,,,0.00,meteohub,2013-06-25 05:05:00,
2013-06-24 23:10:00,75.9,-18.2,30.53,WSW,248,7.0,17.0,2,0.00,,,0.00,meteohub,2013-06-25 05:10:00,
2013-06-24 23:15:00,75.9,-18.2,30.53,NNW,338,5.0,17.0,2,0.00,,,0.00,meteohub,2013-06-25 05:15:00,
2013-06-24 23:20:00,75.7,-18.4,30.53,SSW,202,3.0,15.0,2,0.00,,,0.00,meteohub,2013-06-25 05:20:00,
2013-06-24 23:26:00,75.4,-18.6,30.53,WNW,292,4.0,15.0,2,0.00,,,0.00,meteohub,2013-06-25 05:26:00,
2013-06-24 23:31:00,75.6,-18.4,30.53,WSW,248,6.0,15.0,2,0.00,,,0.00,meteohub,2013-06-25 05:31:00,
2013-06-24 23:36:00,75.6,-18.4,30.53,SSW,202,2.0,10.0,2,0.00,,,0.00,meteohub,2013-06-25 05:36:00,
2013-06-24 23:41:00,75.4,-18.6,30.53,SSW,202,11.0,11.0,2,0.00,,,0.00,meteohub,2013-06-25 05:41:00,
2013-06-24 23:46:00,75.6,-18.4,30.53,WSW,248,3.0,14.0,2,0.00,,,0.00,meteohub,2013-06-25 05:46:00,
2013-06-24 23:51:00,75.6,-18.4,30.53,NNW,338,4.0,19.0,2,0.00,,,0.00,meteohub,2013-06-25 05:51:00,
2013-06-24 23:56:00,75.6,-18.4,30.53,WSW,248,6.0,19.0,2,0.00,,,0.00,meteohub,2013-06-25 05:56:00,